Coos Bay, OR

10:25 PM PDT on March 31, 2015 (GMT -0700)
Red Dike Road | | Change Station
CLOSE
Current Station
Personal Weather Station
Location: Coos Bay, OR
Elevation: 39 ft
Nearby Weather Stations

Elev 39 ft 43.33 °N, 124.23 °W | Updated 18 seconds ago

Mostly Cloudy
Mostly Cloudy
43.9 °F
Feels Like 44 °F
N
0.0
Wind Variable Wind from SSW

Today
High -- | Low -- °F
--% Chance of Precip.
Yesterday
High -- | Low -- °F
Precip. -- in
7:00 AM 7:42 PM
Waxing Gibbous, 91% visible
Pressure 30.32 in
Visibility 10.0 miles
Clouds Scattered Clouds 11000 ft
Windchill 44 °F
Dew Point 42 °F
Humidity 94%
Rainfall 0.32 in
Snow Depth Not available.
UV 0 out of 12
Pollen 3.80 out of 12
Air Quality Not available.
Flu Activity Not available.
METAR KOTH 010515Z 16005KT 10SM SCT110 08/08 A3032 RMK AO1

More Conditions Fewer Conditions

Pressure 30.32 in
Visibility 10.0 miles
Clouds Scattered Clouds 11000 ft
Windchill 44 °F
Dew Point 42 °F
Humidity 94%
Rainfall 0.32 in
Snow Depth Not available.
UV 0 out of 12
Pollen 3.80 out of 12
Air Quality Not available.
Flu Activity Not available.
METAR KOTH 010515Z 16005KT 10SM SCT110 08/08 A3032 RMK AO1

More Conditions Fewer Conditions

10-Day Weather Forecast

Almanac

Astronomy

Mar. 31, 2015 Rise Set
Actual Time
Civil Twilight
Nautical Twilight
Astronomical Twilight
Moon
Length of Visible Light
Length of Day
Tomorrow will be .
, % of the Moon is Illuminated

Today's Extremes

State Highs State Lows

Community

WunderPhotos

Upload Photos

1,809,919 photos uploaded!

WunderBlogs® & News

Nearby

Air Quality

  Air Quality AQ Index Pollutant
Not available.

Snow Depth

Station Depth Elevation

Earthquake Activity

City Distance Mag. Time & Date
Minimum magnitude displayed is 2.5.

Coastal Water Temperatures

Place Temperature

Stations

Nearby Weather Stations

Station Location Temp. Windchill Dew Point Humidity Wind Precip. Elev Updated Type